sensor_id;sensor_type;location;lat;lon;timestamp;pressure;altitude;pressure_sealevel;temperature;humidity
15880;BME280;61999;51.514;14.614;2023-02-05T00:00:05;102278.16;;;-5.61;54.52
15880;BME280;61999;51.514;14.614;2023-02-05T00:02:34;102279.72;;;-5.66;54.40
15880;BME280;61999;51.514;14.614;2023-02-05T00:05:02;102277.09;;;-5.69;54.25
15880;BME280;61999;51.514;14.614;2023-02-05T00:07:32;102270.16;;;-5.72;54.57
15880;BME280;61999;51.514;14.614;2023-02-05T00:10:00;102271.00;;;-5.73;54.61
15880;BME280;61999;51.514;14.614;2023-02-05T00:12:30;102264.97;;;-5.75;54.65
15880;BME280;61999;51.514;14.614;2023-02-05T00:14:58;102263.97;;;-5.80;54.43
15880;BME280;61999;51.514;14.614;2023-02-05T00:17:26;102264.81;;;-5.81;54.62
15880;BME280;61999;51.514;14.614;2023-02-05T00:19:55;102259.63;;;-5.83;54.81
15880;BME280;61999;51.514;14.614;2023-02-05T00:22:23;102260.91;;;-6.00;53.14
15880;BME280;61999;51.514;14.614;2023-02-05T00:24:51;102261.75;;;-6.01;54.14
15880;BME280;61999;51.514;14.614;2023-02-05T00:27:19;102260.91;;;-6.00;54.56
15880;BME280;61999;51.514;14.614;2023-02-05T00:29:49;102253.13;;;-6.03;54.42
15880;BME280;61999;51.514;14.614;2023-02-05T00:32:17;102264.13;;;-6.09;54.16
15880;BME280;61999;51.514;14.614;2023-02-05T00:34:46;102246.94;;;-6.11;54.71
15880;BME280;61999;51.514;14.614;2023-02-05T00:37:14;102252.50;;;-6.90;51.30
15880;BME280;61999;51.514;14.614;2023-02-05T00:39:42;102247.91;;;-7.01;52.51
15880;BME280;61999;51.514;14.614;2023-02-05T00:42:10;102256.88;;;-7.44;52.31
15880;BME280;61999;51.514;14.614;2023-02-05T00:44:38;102256.31;;;-7.06;52.84
15880;BME280;61999;51.514;14.614;2023-02-05T00:47:07;102262.00;;;-6.87;52.55
15880;BME280;61999;51.514;14.614;2023-02-05T00:49:35;102265.47;;;-6.85;53.51
15880;BME280;61999;51.514;14.614;2023-02-05T00:52:03;102272.13;;;-6.62;54.66
15880;BME280;61999;51.514;14.614;2023-02-05T00:54:31;102273.22;;;-6.53;54.61
15880;BME280;61999;51.514;14.614;2023-02-05T00:56:59;102280.06;;;-6.52;54.37
15880;BME280;61999;51.514;14.614;2023-02-05T00:59:27;102273.22;;;-6.53;54.54
15880;BME280;61999;51.514;14.614;2023-02-05T01:01:55;102274.16;;;-6.50;55.07
15880;BME280;61999;51.514;14.614;2023-02-05T01:04:24;102278.34;;;-6.53;54.90
15880;BME280;61999;51.514;14.614;2023-02-05T01:06:52;102275.56;;;-6.61;54.58
15880;BME280;61999;51.514;14.614;2023-02-05T01:09:21;102274.53;;;-6.68;54.37
15880;BME280;61999;51.514;14.614;2023-02-05T01:11:50;102265.06;;;-6.69;55.13
15880;BME280;61999;51.514;14.614;2023-02-05T01:14:18;102258.97;;;-6.74;54.65
15880;BME280;61999;51.514;14.614;2023-02-05T01:16:46;102250.59;;;-6.67;54.86
15880;BME280;61999;51.514;14.614;2023-02-05T01:19:14;102251.53;;;-6.65;54.93
15880;BME280;61999;51.514;14.614;2023-02-05T01:21:43;102245.72;;;-6.57;55.29
15880;BME280;61999;51.514;14.614;2023-02-05T01:24:11;102258.59;;;-6.56;55.56
15880;BME280;61999;51.514;14.614;2023-02-05T01:26:40;102265.38;;;-6.58;55.23
15880;BME280;61999;51.514;14.614;2023-02-05T01:29:08;102254.97;;;-6.63;55.35
15880;BME280;61999;51.514;14.614;2023-02-05T01:31:36;102265.19;;;-6.94;53.20
15880;BME280;61999;51.514;14.614;2023-02-05T01:34:04;102261.25;;;-6.83;54.47
15880;BME280;61999;51.514;14.614;2023-02-05T01:36:32;102251.22;;;-6.75;54.95
15880;BME280;61999;51.514;14.614;2023-02-05T01:39:01;102241.03;;;-6.72;55.69
15880;BME280;61999;51.514;14.614;2023-02-05T01:41:29;102239.34;;;-6.72;55.43
15880;BME280;61999;51.514;14.614;2023-02-05T01:44:09;102247.00;;;-6.73;55.19
15880;BME280;61999;51.514;14.614;2023-02-05T01:46:40;102247.72;;;-6.77;55.58
15880;BME280;61999;51.514;14.614;2023-02-05T01:49:15;102255.94;;;-7.46;53.31
15880;BME280;61999;51.514;14.614;2023-02-05T01:51:47;102241.28;;;-8.05;54.85
15880;BME280;61999;51.514;14.614;2023-02-05T01:54:21;102232.41;;;-7.62;54.85
15880;BME280;61999;51.514;14.614;2023-02-05T01:56:55;102230.16;;;-7.24;55.24
15880;BME280;61999;51.514;14.614;2023-02-05T01:59:27;102225.38;;;-7.12;55.41
15880;BME280;61999;51.514;14.614;2023-02-05T02:01:56;102226.44;;;-7.05;55.72
15880;BME280;61999;51.514;14.614;2023-02-05T02:04:37;102217.09;;;-7.03;55.25
15880;BME280;61999;51.514;14.614;2023-02-05T02:07:09;102212.03;;;-7.01;55.50
15880;BME280;61999;51.514;14.614;2023-02-05T02:09:42;102211.09;;;-7.03;55.96
15880;BME280;61999;51.514;14.614;2023-02-05T02:12:14;102205.97;;;-7.03;55.48
15880;BME280;61999;51.514;14.614;2023-02-05T02:14:49;102209.16;;;-7.41;53.61
15880;BME280;61999;51.514;14.614;2023-02-05T02:17:19;102199.81;;;-7.39;54.79
15880;BME280;61999;51.514;14.614;2023-02-05T02:19:58;102200.88;;;-7.32;54.41
15880;BME280;61999;51.514;14.614;2023-02-05T02:22:57;102201.03;;;-7.26;55.19
15880;BME280;61999;51.514;14.614;2023-02-05T02:26:19;102197.75;;;-7.22;56.15
15880;BME280;61999;51.514;14.614;2023-02-05T02:28:58;102200.88;;;-7.32;54.62
15880;BME280;61999;51.514;14.614;2023-02-05T02:31:39;102201.78;;;-7.59;54.52
15880;BME280;61999;51.514;14.614;2023-02-05T02:34:15;102196.94;;;-8.04;54.57
15880;BME280;61999;51.514;14.614;2023-02-05T02:36:55;102199.66;;;-7.72;54.97
15880;BME280;61999;51.514;14.614;2023-02-05T02:39:31;102196.84;;;-7.53;55.69
15880;BME280;61999;51.514;14.614;2023-02-05T02:42:07;102182.59;;;-7.43;55.75
15880;BME280;61999;51.514;14.614;2023-02-05T02:44:42;102187.03;;;-7.37;55.91
15880;BME280;61999;51.514;14.614;2023-02-05T02:47:15;102182.81;;;-7.37;56.31
15880;BME280;61999;51.514;14.614;2023-02-05T02:49:49;102176.09;;;-7.33;55.79
15880;BME280;61999;51.514;14.614;2023-02-05T02:52:23;102175.06;;;-7.38;55.96
15880;BME280;61999;51.514;14.614;2023-02-05T02:54:56;102178.56;;;-7.36;55.56
15880;BME280;61999;51.514;14.614;2023-02-05T02:57:28;102171.97;;;-7.57;54.29
15880;BME280;61999;51.514;14.614;2023-02-05T03:00:00;102177.84;;;-8.65;55.95
15880;BME280;61999;51.514;14.614;2023-02-05T03:02:33;102187.19;;;-7.88;56.57
15880;BME280;61999;51.514;14.614;2023-02-05T03:05:08;102190.53;;;-7.64;56.13
15880;BME280;61999;51.514;14.614;2023-02-05T03:07:42;102186.50;;;-7.56;56.13
15880;BME280;61999;51.514;14.614;2023-02-05T03:10:23;102190.19;;;-7.47;56.71
15880;BME280;61999;51.514;14.614;2023-02-05T03:12:54;102189.16;;;-7.53;55.87
15880;BME280;61999;51.514;14.614;2023-02-05T03:15:24;102188.41;;;-7.48;56.10
15880;BME280;61999;51.514;14.614;2023-02-05T03:17:54;102181.56;;;-7.49;55.93
15880;BME280;61999;51.514;14.614;2023-02-05T03:20:26;102179.06;;;-7.48;55.98
15880;BME280;61999;51.514;14.614;2023-02-05T03:22:56;102180.78;;;-7.47;56.19
15880;BME280;61999;51.514;14.614;2023-02-05T03:25:27;102174.91;;;-7.44;56.35
15880;BME280;61999;51.514;14.614;2023-02-05T03:27:58;102179.25;;;-7.42;56.18
15880;BME280;61999;51.514;14.614;2023-02-05T03:30:38;102169.81;;;-7.43;55.79
15880;BME280;61999;51.514;14.614;2023-02-05T03:33:28;102175.63;;;-7.48;55.59
15880;BME280;61999;51.514;14.614;2023-02-05T03:36:08;102167.94;;;-7.48;55.82
15880;BME280;61999;51.514;14.614;2023-02-05T03:38:56;102169.69;;;-7.47;55.85
15880;BME280;61999;51.514;14.614;2023-02-05T03:41:39;102179.94;;;-7.47;55.83
15880;BME280;61999;51.514;14.614;2023-02-05T03:44:48;102167.75;;;-7.55;55.82
15880;BME280;61999;51.514;14.614;2023-02-05T03:47:35;102157.50;;;-7.55;55.86
15880;BME280;61999;51.514;14.614;2023-02-05T03:50:20;102160.91;;;-7.56;56.62
15880;BME280;61999;51.514;14.614;2023-02-05T03:52:59;102167.75;;;-7.55;56.32
15880;BME280;61999;51.514;14.614;2023-02-05T03:55:40;102167.75;;;-7.55;55.75
15880;BME280;61999;51.514;14.614;2023-02-05T03:58:18;102179.53;;;-7.60;55.65
15880;BME280;61999;51.514;14.614;2023-02-05T04:00:50;102180.81;;;-7.74;54.60
15880;BME280;61999;51.514;14.614;2023-02-05T04:03:19;102176.69;;;-7.69;55.84
15880;BME280;61999;51.514;14.614;2023-02-05T04:05:47;102174.97;;;-7.70;56.21
15880;BME280;61999;51.514;14.614;2023-02-05T04:08:15;102175.81;;;-7.71;56.24
15880;BME280;61999;51.514;14.614;2023-02-05T04:10:46;102186.81;;;-7.73;55.42
15880;BME280;61999;51.514;14.614;2023-02-05T04:13:14;102184.00;;;-7.81;55.76
15880;BME280;61999;51.514;14.614;2023-02-05T04:15:42;102187.88;;;-7.94;55.66
15880;BME280;61999;51.514;14.614;2023-02-05T04:18:10;102196.81;;;-7.81;56.39
15880;BME280;61999;51.514;14.614;2023-02-05T04:20:40;102192.63;;;-7.79;56.10
15880;BME280;61999;51.514;14.614;2023-02-05T04:23:09;102198.72;;;-7.74;55.80
15880;BME280;61999;51.514;14.614;2023-02-05T04:25:38;102207.41;;;-7.70;56.51
15880;BME280;61999;51.514;14.614;2023-02-05T04:28:06;102210.00;;;-7.69;56.35
15880;BME280;61999;51.514;14.614;2023-02-05T04:30:36;102210.81;;;-7.70;55.97
15880;BME280;61999;51.514;14.614;2023-02-05T04:33:05;102213.28;;;-7.73;55.56
15880;BME280;61999;51.514;14.614;2023-02-05T04:35:33;102206.41;;;-7.74;56.11
15880;BME280;61999;51.514;14.614;2023-02-05T04:38:03;102213.28;;;-7.73;56.19
15880;BME280;61999;51.514;14.614;2023-02-05T04:40:31;102216.66;;;-7.74;56.24
15880;BME280;61999;51.514;14.614;2023-02-05T04:42:59;102215.75;;;-7.76;56.27
15880;BME280;61999;51.514;14.614;2023-02-05T04:45:27;102212.09;;;-7.83;55.83
15880;BME280;61999;51.514;14.614;2023-02-05T04:47:57;102210.38;;;-7.84;55.97
15880;BME280;61999;51.514;14.614;2023-02-05T04:50:25;102222.34;;;-7.83;56.26
15880;BME280;61999;51.514;14.614;2023-02-05T04:52:54;102223.25;;;-7.82;55.97
15880;BME280;61999;51.514;14.614;2023-02-05T04:55:23;102225.81;;;-7.82;55.66
15880;BME280;61999;51.514;14.614;2023-02-05T04:57:51;102228.13;;;-7.88;55.56
15880;BME280;61999;51.514;14.614;2023-02-05T05:00:19;102223.16;;;-7.85;56.44
15880;BME280;61999;51.514;14.614;2023-02-05T05:02:47;102218.72;;;-7.89;55.90
15880;BME280;61999;51.514;14.614;2023-02-05T05:05:16;102222.91;;;-7.91;56.20
15880;BME280;61999;51.514;14.614;2023-02-05T05:07:44;102224.59;;;-7.93;55.82
15880;BME280;61999;51.514;14.614;2023-02-05T05:10:12;102209.22;;;-7.93;56.14
15880;BME280;61999;51.514;14.614;2023-02-05T05:12:42;102216.81;;;-7.97;56.07
15880;BME280;61999;51.514;14.614;2023-02-05T05:15:10;102216.84;;;-7.95;55.56
15880;BME280;61999;51.514;14.614;2023-02-05T05:17:38;102216.81;;;-7.97;56.40
15880;BME280;61999;51.514;14.614;2023-02-05T05:20:07;102218.59;;;-7.94;55.73
15880;BME280;61999;51.514;14.614;2023-02-05T05:22:38;102221.97;;;-7.95;56.27
15880;BME280;61999;51.514;14.614;2023-02-05T05:25:07;102218.47;;;-7.97;55.54
15880;BME280;61999;51.514;14.614;2023-02-05T05:27:35;102207.38;;;-7.98;55.72
15880;BME280;61999;51.514;14.614;2023-02-05T05:30:06;102209.03;;;-8.00;56.15
15880;BME280;61999;51.514;14.614;2023-02-05T05:32:34;102206.34;;;-8.03;56.37
15880;BME280;61999;51.514;14.614;2023-02-05T05:35:02;102210.56;;;-8.05;56.13
15880;BME280;61999;51.514;14.614;2023-02-05T05:37:30;102213.91;;;-8.06;55.50
15880;BME280;61999;51.514;14.614;2023-02-05T05:39:58;102201.97;;;-8.07;56.67
15880;BME280;61999;51.514;14.614;2023-02-05T05:42:44;102205.44;;;-8.05;55.88
15880;BME280;61999;51.514;14.614;2023-02-05T05:45:31;102204.59;;;-8.05;56.41
15880;BME280;61999;51.514;14.614;2023-02-05T05:47:59;102193.44;;;-8.06;56.39
15880;BME280;61999;51.514;14.614;2023-02-05T05:50:29;102198.47;;;-8.09;56.20
15880;BME280;61999;51.514;14.614;2023-02-05T05:52:57;102195.06;;;-8.09;56.05
15880;BME280;61999;51.514;14.614;2023-02-05T05:55:25;102193.34;;;-8.09;56.20
15880;BME280;61999;51.514;14.614;2023-02-05T05:57:53;102195.97;;;-8.07;56.34
15880;BME280;61999;51.514;14.614;2023-02-05T06:00:21;102201.09;;;-8.07;56.53
15880;BME280;61999;51.514;14.614;2023-02-05T06:02:50;102206.22;;;-8.07;56.43
15880;BME280;61999;51.514;14.614;2023-02-05T06:05:19;102214.66;;;-8.10;56.46
15880;BME280;61999;51.514;14.614;2023-02-05T06:07:47;102218.03;;;-8.11;56.18
15880;BME280;61999;51.514;14.614;2023-02-05T06:10:15;102217.16;;;-8.11;56.26
15880;BME280;61999;51.514;14.614;2023-02-05T06:12:43;102218.84;;;-8.12;56.27
15880;BME280;61999;51.514;14.614;2023-02-05T06:15:11;102220.59;;;-8.11;56.30
15880;BME280;61999;51.514;14.614;2023-02-05T06:17:39;102226.38;;;-8.16;55.92
15880;BME280;61999;51.514;14.614;2023-02-05T06:20:11;102234.16;;;-8.13;56.09
15880;BME280;61999;51.514;14.614;2023-02-05T06:22:40;102235.88;;;-8.12;55.78
15880;BME280;61999;51.514;14.614;2023-02-05T06:25:08;102241.94;;;-8.10;55.92
15880;BME280;61999;51.514;14.614;2023-02-05T06:27:36;102251.31;;;-8.11;56.63
15880;BME280;61999;51.514;14.614;2023-02-05T06:30:05;102244.53;;;-8.09;56.13
15880;BME280;61999;51.514;14.614;2023-02-05T06:32:33;102248.84;;;-8.08;56.69
15880;BME280;61999;51.514;14.614;2023-02-05T06:35:02;102251.34;;;-8.09;55.99
15880;BME280;61999;51.514;14.614;2023-02-05T06:37:31;102254.66;;;-8.12;56.33
15880;BME280;61999;51.514;14.614;2023-02-05T06:40:13;102253.63;;;-8.17;55.71
15880;BME280;61999;51.514;14.614;2023-02-05T06:42:43;102255.88;;;-8.26;55.20
15880;BME280;61999;51.514;14.614;2023-02-05T06:45:12;102253.19;;;-8.31;54.63
15880;BME280;61999;51.514;14.614;2023-02-05T06:47:40;102258.50;;;-8.25;56.03
15880;BME280;61999;51.514;14.614;2023-02-05T06:50:09;102269.78;;;-8.20;56.18
15880;BME280;61999;51.514;14.614;2023-02-05T06:52:38;102256.09;;;-8.20;55.73
15880;BME280;61999;51.514;14.614;2023-02-05T06:55:07;102250.97;;;-8.20;55.48
15880;BME280;61999;51.514;14.614;2023-02-05T06:57:35;102252.00;;;-8.15;56.48
15880;BME280;61999;51.514;14.614;2023-02-05T07:00:04;102259.78;;;-8.12;56.03
15880;BME280;61999;51.514;14.614;2023-02-05T07:14:52;102262.88;;;-8.70;54.39
15880;BME280;61999;51.514;14.614;2023-02-05T07:17:20;102264.28;;;-8.54;54.05
15880;BME280;61999;51.514;14.614;2023-02-05T07:19:48;102263.31;;;-8.34;54.75
15880;BME280;61999;51.514;14.614;2023-02-05T07:22:16;102266.66;;;-8.11;55.62
15880;BME280;61999;51.514;14.614;2023-02-05T07:24:44;102266.41;;;-7.93;56.51
15880;BME280;61999;51.514;14.614;2023-02-05T07:27:12;102272.78;;;-7.80;57.04
15880;BME280;61999;51.514;14.614;2023-02-05T07:29:40;102278.41;;;-7.65;57.66
15880;BME280;61999;51.514;14.614;2023-02-05T07:32:10;102281.41;;;-7.51;57.66
15880;BME280;61999;51.514;14.614;2023-02-05T07:34:38;102286.94;;;-7.39;57.63
15880;BME280;61999;51.514;14.614;2023-02-05T07:37:06;102287.03;;;-7.34;57.74
15880;BME280;61999;51.514;14.614;2023-02-05T07:39:34;102283.78;;;-7.30;57.01
15880;BME280;61999;51.514;14.614;2023-02-05T07:42:02;102291.94;;;-7.15;58.70
15880;BME280;61999;51.514;14.614;2023-02-05T07:44:30;102285.59;;;-6.97;58.63
15880;BME280;61999;51.514;14.614;2023-02-05T07:46:58;102281.66;;;-6.86;58.29
15880;BME280;61999;51.514;14.614;2023-02-05T07:49:28;102274.53;;;-6.68;59.11
15880;BME280;61999;51.514;14.614;2023-02-05T07:51:55;102269.03;;;-6.50;58.70
15880;BME280;61999;51.514;14.614;2023-02-05T07:54:23;102267.00;;;-6.30;58.90
15880;BME280;61999;51.514;14.614;2023-02-05T07:56:51;102265.75;;;-6.12;58.17
15880;BME280;61999;51.514;14.614;2023-02-05T07:59:21;102261.25;;;-5.88;59.08
15880;BME280;61999;51.514;14.614;2023-02-05T08:01:48;102253.13;;;-5.68;57.58
15880;BME280;61999;51.514;14.614;2023-02-05T08:04:17;102255.56;;;-5.37;58.90
15880;BME280;61999;51.514;14.614;2023-02-05T08:06:46;102249.44;;;-5.04;59.34
15880;BME280;61999;51.514;14.614;2023-02-05T08:09:14;102257.81;;;-4.73;60.54
15880;BME280;61999;51.514;14.614;2023-02-05T12:11:12;102074.75;;;3.38;32.84
15880;BME280;61999;51.514;14.614;2023-02-05T12:13:55;102082.53;;;3.41;33.78
15880;BME280;61999;51.514;14.614;2023-02-05T12:16:51;102086.44;;;3.66;33.40
15880;BME280;61999;51.514;14.614;2023-02-05T12:19:43;102081.78;;;3.85;33.62
15880;BME280;61999;51.514;14.614;2023-02-05T12:26:36;102075.28;;;4.06;32.83
15880;BME280;61999;51.514;14.614;2023-02-05T12:33:30;102071.34;;;4.71;29.66
15880;BME280;61999;51.514;14.614;2023-02-05T12:36:17;102074.94;;;5.05;31.17
15880;BME280;61999;51.514;14.614;2023-02-05T12:39:02;102073.31;;;5.00;30.04
15880;BME280;61999;51.514;14.614;2023-02-05T12:41:47;102079.56;;;5.30;30.66
15880;BME280;61999;51.514;14.614;2023-02-05T12:44:35;102072.66;;;5.62;30.20
15880;BME280;61999;51.514;14.614;2023-02-05T12:47:29;102065.78;;;5.58;27.96
15880;BME280;61999;51.514;14.614;2023-02-05T12:50:25;102068.00;;;5.40;28.70
15880;BME280;61999;51.514;14.614;2023-02-05T12:53:14;102062.25;;;5.60;30.50
15880;BME280;61999;51.514;14.614;2023-02-05T12:56:05;102064.31;;;5.47;29.42
15880;BME280;61999;51.514;14.614;2023-02-05T12:58:45;102062.28;;;5.59;31.55
15880;BME280;61999;51.514;14.614;2023-02-05T13:01:20;102059.16;;;5.44;29.94
15880;BME280;61999;51.514;14.614;2023-02-05T13:03:55;102061.06;;;5.38;31.73
15880;BME280;61999;51.514;14.614;2023-02-05T13:06:32;102063.88;;;5.30;31.17
15880;BME280;61999;51.514;14.614;2023-02-05T13:09:12;102069.34;;;4.41;26.92
15880;BME280;61999;51.514;14.614;2023-02-05T13:11:50;102072.28;;;4.25;30.30
15880;BME280;61999;51.514;14.614;2023-02-05T13:14:30;102073.97;;;4.71;31.63
15880;BME280;61999;51.514;14.614;2023-02-05T13:17:05;102069.84;;;4.60;29.27
15880;BME280;61999;51.514;14.614;2023-02-05T13:19:41;102071.47;;;4.64;32.23
15880;BME280;61999;51.514;14.614;2023-02-05T13:22:17;102063.78;;;4.16;32.15
15880;BME280;61999;51.514;14.614;2023-02-05T13:25:15;102057.84;;;4.50;32.00
15880;BME280;61999;51.514;14.614;2023-02-05T13:28:33;102064.75;;;4.54;30.98
15880;BME280;61999;51.514;14.614;2023-02-05T13:31:24;102065.47;;;4.62;30.71
15880;BME280;61999;51.514;14.614;2023-02-05T13:34:00;102065.34;;;4.67;32.60
15880;BME280;61999;51.514;14.614;2023-02-05T13:36:49;102071.31;;;4.74;29.67
15880;BME280;61999;51.514;14.614;2023-02-05T13:40:05;102067.94;;;4.69;29.79
15880;BME280;61999;51.514;14.614;2023-02-05T13:42:56;102073.22;;;4.66;28.79
15880;BME280;61999;51.514;14.614;2023-02-05T13:46:16;102077.81;;;4.54;27.73
15880;BME280;61999;51.514;14.614;2023-02-05T13:49:35;102066.59;;;4.06;27.09
15880;BME280;61999;51.514;14.614;2023-02-05T13:52:33;102067.84;;;3.85;26.96
15880;BME280;61999;51.514;14.614;2023-02-05T13:55:44;102079.78;;;3.98;27.86
15880;BME280;61999;51.514;14.614;2023-02-05T13:58:21;102078.69;;;4.10;27.72
15880;BME280;61999;51.514;14.614;2023-02-05T14:00:58;102079.47;;;4.13;27.83
15880;BME280;61999;51.514;14.614;2023-02-05T14:03:33;102082.97;;;4.12;27.55
15880;BME280;61999;51.514;14.614;2023-02-05T14:06:21;102087.69;;;3.93;26.39
15880;BME280;61999;51.514;14.614;2023-02-05T14:08:58;102082.25;;;3.56;26.19
15880;BME280;61999;51.514;14.614;2023-02-05T14:11:28;102087.22;;;3.17;26.64
15880;BME280;61999;51.514;14.614;2023-02-05T14:14:28;102089.81;;;3.17;26.51
15880;BME280;61999;51.514;14.614;2023-02-05T14:16:59;102087.41;;;3.03;26.91
15880;BME280;61999;51.514;14.614;2023-02-05T14:19:51;102083.16;;;2.98;26.96
15880;BME280;61999;51.514;14.614;2023-02-05T14:22:38;102076.56;;;2.72;26.25
15880;BME280;61999;51.514;14.614;2023-02-05T14:26:06;102082.13;;;2.45;27.09
15880;BME280;61999;51.514;14.614;2023-02-05T14:28:51;102090.31;;;2.14;27.63
15880;BME280;61999;51.514;14.614;2023-02-05T14:31:48;102088.69;;;2.05;28.12
15880;BME280;61999;51.514;14.614;2023-02-05T14:34:58;102082.63;;;2.05;28.31
15880;BME280;61999;51.514;14.614;2023-02-05T14:37:36;102078.34;;;1.99;27.97
15880;BME280;61999;51.514;14.614;2023-02-05T14:40:22;102070.69;;;1.85;27.59
15880;BME280;61999;51.514;14.614;2023-02-05T14:42:55;102069.94;;;1.69;28.18
15880;BME280;61999;51.514;14.614;2023-02-05T14:45:42;102069.97;;;1.68;28.63
15880;BME280;61999;51.514;14.614;2023-02-05T14:48:25;102070.97;;;1.50;28.79
15880;BME280;61999;51.514;14.614;2023-02-05T14:51:06;102074.47;;;1.46;28.95
15880;BME280;61999;51.514;14.614;2023-02-05T14:53:36;102077.19;;;1.34;28.58
15880;BME280;61999;51.514;14.614;2023-02-05T14:56:06;102084.13;;;1.32;28.88
15880;BME280;61999;51.514;14.614;2023-02-05T14:58:37;102088.47;;;1.31;29.15
15880;BME280;61999;51.514;14.614;2023-02-05T15:01:43;102090.28;;;1.20;28.91
15880;BME280;61999;51.514;14.614;2023-02-05T15:04:31;102091.16;;;1.16;29.56
15880;BME280;61999;51.514;14.614;2023-02-05T15:07:11;102105.94;;;1.11;30.06
15880;BME280;61999;51.514;14.614;2023-02-05T15:09:46;102098.16;;;1.06;29.98
15880;BME280;61999;51.514;14.614;2023-02-05T15:12:40;102093.94;;;0.88;29.25
15880;BME280;61999;51.514;14.614;2023-02-05T15:15:28;102092.22;;;0.84;29.96
15880;BME280;61999;51.514;14.614;2023-02-05T15:18:16;102086.22;;;0.74;29.93
15880;BME280;61999;51.514;14.614;2023-02-05T15:20:50;102092.31;;;0.69;30.22
15880;BME280;61999;51.514;14.614;2023-02-05T15:23:33;102089.75;;;0.61;30.17
15880;BME280;61999;51.514;14.614;2023-02-05T15:26:04;102091.53;;;0.47;30.25
15880;BME280;61999;51.514;14.614;2023-02-05T15:28:39;102095.03;;;0.43;30.53
15880;BME280;61999;51.514;14.614;2023-02-05T15:31:25;102099.38;;;0.36;30.87
15880;BME280;61999;51.514;14.614;2023-02-05T15:34:05;102093.34;;;0.31;31.21
15880;BME280;61999;51.514;14.614;2023-02-05T15:36:39;102087.25;;;0.21;31.13
15880;BME280;61999;51.514;14.614;2023-02-05T15:39:20;102087.31;;;0.13;31.28
15880;BME280;61999;51.514;14.614;2023-02-05T15:41:55;102090.78;;;0.03;31.19
15880;BME280;61999;51.514;14.614;2023-02-05T15:44:29;102089.94;;;-0.07;31.51
15880;BME280;61999;51.514;14.614;2023-02-05T15:47:02;102096.00;;;-0.17;31.25
15880;BME280;61999;51.514;14.614;2023-02-05T15:49:35;102098.63;;;-0.29;31.93
15880;BME280;61999;51.514;14.614;2023-02-05T15:52:05;102093.44;;;-0.41;32.51
15880;BME280;61999;51.514;14.614;2023-02-05T15:54:36;102096.88;;;-0.48;32.23
15880;BME280;61999;51.514;14.614;2023-02-05T15:57:06;102091.69;;;-0.56;32.14
15880;BME280;61999;51.514;14.614;2023-02-05T15:59:38;102102.06;;;-0.62;32.50
15880;BME280;61999;51.514;14.614;2023-02-05T16:02:16;102100.34;;;-0.72;32.51
15880;BME280;61999;51.514;14.614;2023-02-05T16:04:53;102106.34;;;-0.83;32.86
15880;BME280;61999;51.514;14.614;2023-02-05T16:07:25;102109.78;;;-0.96;32.72
15880;BME280;61999;51.514;14.614;2023-02-05T16:09:58;102112.38;;;-1.04;33.23
15880;BME280;61999;51.514;14.614;2023-02-05T16:12:26;102109.75;;;-1.11;33.23
15880;BME280;61999;51.514;14.614;2023-02-05T16:15:01;102103.69;;;-1.23;34.19
15880;BME280;61999;51.514;14.614;2023-02-05T16:17:38;102095.03;;;-1.31;33.28
15880;BME280;61999;51.514;14.614;2023-02-05T16:20:22;102094.13;;;-1.39;33.63
15880;BME280;61999;51.514;14.614;2023-02-05T16:22:56;102103.59;;;-1.46;33.71
15880;BME280;61999;51.514;14.614;2023-02-05T16:25:36;102107.00;;;-1.54;34.29
15880;BME280;61999;51.514;14.614;2023-02-05T16:28:16;102123.31;;;-1.65;34.79
15880;BME280;61999;51.514;14.614;2023-02-05T16:30:49;102129.31;;;-1.69;34.24
15880;BME280;61999;51.514;14.614;2023-02-05T16:33:29;102130.16;;;-1.76;34.38
15880;BME280;61999;51.514;14.614;2023-02-05T16:36:03;102136.09;;;-1.88;34.91
15880;BME280;61999;51.514;14.614;2023-02-05T16:38:34;102145.53;;;-1.91;35.08
15880;BME280;61999;51.514;14.614;2023-02-05T16:41:21;102147.16;;;-2.05;34.96
15880;BME280;61999;51.514;14.614;2023-02-05T16:43:51;102146.34;;;-2.01;35.35
15880;BME280;61999;51.514;14.614;2023-02-05T16:46:27;102150.59;;;-2.10;36.18
15880;BME280;61999;51.514;14.614;2023-02-05T16:56:20;102182.91;;;-2.55;36.37
15880;BME280;61999;51.514;14.614;2023-02-05T16:58:53;102183.84;;;-2.49;36.06
15880;BME280;61999;51.514;14.614;2023-02-05T17:01:23;102183.81;;;-2.51;36.90
15880;BME280;61999;51.514;14.614;2023-02-05T17:03:54;102188.13;;;-2.48;36.53
15880;BME280;61999;51.514;14.614;2023-02-05T17:06:32;102174.41;;;-2.47;36.03
15880;BME280;61999;51.514;14.614;2023-02-05T17:09:02;102172.66;;;-2.48;35.93
15880;BME280;61999;51.514;14.614;2023-02-05T17:11:35;102179.50;;;-2.50;36.32
15880;BME280;61999;51.514;14.614;2023-02-05T17:14:20;102176.03;;;-2.56;35.64
15880;BME280;61999;51.514;14.614;2023-02-05T17:17:00;102177.69;;;-2.61;36.66
15880;BME280;61999;51.514;14.614;2023-02-05T17:19:30;102170.75;;;-2.65;36.05
15880;BME280;61999;51.514;14.614;2023-02-05T17:22:19;102169.91;;;-2.65;36.23
15880;BME280;61999;51.514;14.614;2023-02-05T17:24:48;102164.69;;;-2.70;36.15
15880;BME280;61999;51.514;14.614;2023-02-05T17:27:27;102156.06;;;-2.72;36.48
15880;BME280;61999;51.514;14.614;2023-02-05T17:29:58;102165.47;;;-2.79;36.88
15880;BME280;61999;51.514;14.614;2023-02-05T17:32:27;102169.75;;;-2.81;36.83
15880;BME280;61999;51.514;14.614;2023-02-05T17:34:56;102169.72;;;-2.82;36.80
15880;BME280;61999;51.514;14.614;2023-02-05T17:37:25;102164.56;;;-2.82;37.07
15880;BME280;61999;51.514;14.614;2023-02-05T17:39:53;102154.22;;;-2.82;36.40
15880;BME280;61999;51.514;14.614;2023-02-05T17:42:25;102155.09;;;-2.83;36.43
15880;BME280;61999;51.514;14.614;2023-02-05T17:44:55;102160.22;;;-2.86;36.67
15880;BME280;61999;51.514;14.614;2023-02-05T17:47:23;102174.81;;;-2.88;36.55
15880;BME280;61999;51.514;14.614;2023-02-05T17:49:51;102167.00;;;-2.94;36.79